This is the latest recevied weather packets stored in our database for station/object SV2BZQ-1. If no packets are shown the sender has not sent any weather packets the latest 1 day(s).
| Time | Temp. | Humidity | Pressure | Rain* | Wind** | Luminosity | Snow |
|---|---|---|---|---|---|---|---|
| 1777999736 | 19.44° C | 77% | 1011.3 hPa | 0 mm | 2.24 m/s, 186° | - | - |
| 1777999619 | 19.44° C | 74% | 1011.3 hPa | 0 mm | 2.24 m/s, 133° | - | - |
| 1777999499 | 20° C | 72% | 1011.3 hPa | 0 mm | 2.24 m/s, 174° | - | - |
| 1777999386 | 20.56° C | 69% | 1011.1 hPa | 0 mm | 1.79 m/s, 131° | - | - |
| 1777999251 | 20.56° C | 68% | 1011.1 hPa | 0 mm | 1.79 m/s, 114° | - | - |
| 1777999141 | 21.11° C | 66% | 1011.1 hPa | 0 mm | 1.79 m/s, 89° | - | - |
| 1777999030 | 21.67° C | 64% | 1011.1 hPa | 0 mm | 1.79 m/s, 174° | - | - |
| 1777998901 | 21.67° C | 60% | 1011.1 hPa | 0 mm | 1.79 m/s, 150° | - | - |
| 1777998777 | 22.22° C | 57% | 1011.1 hPa | 0 mm | 1.79 m/s, 126° | - | - |
| 1777998653 | 22.78° C | 52% | 1011.1 hPa | 0 mm | 1.34 m/s, 169° | - | - |
| 1777998528 | 22.78° C | 49% | 1010.9 hPa | 0 mm | 1.34 m/s, 174° | - | - |
| 1777998418 | 23.33° C | 46% | 1010.9 hPa | 0 mm | 0.89 m/s, 92° | - | - |
| 1777998286 | 24.44° C | 39% | 1010.9 hPa | 0 mm | 0.45 m/s, 145° | - | - |
| 1777998167 | 25° C | 35% | 1010.9 hPa | 0 mm | 0 m/s | - | - |
| 1777998045 | 25.56° C | 31% | 1010.9 hPa | 0 mm | 0 m/s | - | - |
| 1777997925 | 25.56° C | 30% | 1010.9 hPa | 0 mm | 0 m/s | - | - |
| 1777997807 | 25.56° C | 30% | 1010.9 hPa | 0 mm | 0 m/s | - | - |
| 1777997665 | 25.56° C | 30% | 1010.9 hPa | 0 mm | 0 m/s | - | - |
| 1777997547 | 25.56° C | 29% | 1010.9 hPa | 0 mm | 0 m/s | - | - |
| 1777997426 | 25.56° C | 30% | 1010.9 hPa | 0 mm | 0 m/s | - | - |
| 1777997300 | 25.56° C | 29% | 1010.9 hPa | 0 mm | 0 m/s | - | - |
| 1777997172 | 25.56° C | 29% | 1010.9 hPa | 0 mm | 0 m/s | - | - |
| 1777997056 | 25.56° C | 28% | 1010.9 hPa | 0 mm | 0 m/s | - | - |
| 1777996923 | 25.56° C | 28% | 1010.9 hPa | 0 mm | 0.45 m/s, 223° | - | - |
| 1777996802 | 25.56° C | 27% | 1010.9 hPa | 0 mm | 0.45 m/s, 200° | - | - |
* Rain latest hour (hover to see other rain measurements)
** Current wind speed in m/s (hover to see current wind gust speed)